Time,TemperatureF,DewpointF,PressureIn,WindDirection,WindDirectionDegrees,WindSpeedMPH,WindSpeedGustMPH,Humidity,HourlyPrecipIn,Conditions,Clouds,dailyrainin,SoftwareType,DateUTC
2013-07-06 00:07:00,83.0,72.0,30.13,SSW,212,1.0,4.0,70,0.00,,,0.00,weatherlink.com 1.10,2013-07-06 04:07:00,
2013-07-06 00:22:00,82.8,72.0,30.13,SSW,208,1.0,4.0,70,0.00,,,0.00,weatherlink.com 1.10,2013-07-06 04:22:00,
2013-07-06 00:37:00,82.7,72.0,30.12,SSW,208,2.0,7.0,71,0.00,,,0.00,weatherlink.com 1.10,2013-07-06 04:37:00,
2013-07-06 00:52:00,82.5,72.0,30.12,WSW,244,0.0,3.0,71,0.00,,,0.00,weatherlink.com 1.10,2013-07-06 04:52:00,
2013-07-06 01:07:00,82.3,72.0,30.11,SW,215,2.0,7.0,72,0.00,,,0.00,weatherlink.com 1.10,2013-07-06 05:07:00,
2013-07-06 01:22:00,82.1,72.0,30.11,SW,231,3.0,3.0,72,0.00,,,0.00,weatherlink.com 1.10,2013-07-06 05:22:00,
2013-07-06 01:37:00,81.9,72.0,30.12,ESE,103,1.0,6.0,73,0.00,,,0.00,weatherlink.com 1.10,2013-07-06 05:37:00,
2013-07-06 01:52:00,81.6,73.0,30.12,SE,136,0.0,6.0,74,0.00,,,0.00,weatherlink.com 1.10,2013-07-06 05:52:00,
2013-07-06 02:07:00,81.3,72.0,30.12,WSW,238,4.0,7.0,74,0.00,,,0.00,weatherlink.com 1.10,2013-07-06 06:07:00,
2013-07-06 02:22:00,81.0,72.0,30.12,North,353,2.0,7.0,75,0.00,,,0.00,weatherlink.com 1.10,2013-07-06 06:22:00,
2013-07-06 02:37:00,80.8,72.0,30.12,SE,129,1.0,5.0,75,0.00,,,0.00,weatherlink.com 1.10,2013-07-06 06:37:00,
2013-07-06 02:52:00,79.7,71.0,30.12,SW,231,3.0,4.0,75,0.00,,,0.00,weatherlink.com 1.10,2013-07-06 06:52:00,
2013-07-06 03:07:00,-999.0,-99.9,30.12,North,-999,-999.0,-999.0,-999,0.00,,,0.00,weatherlink.com 1.10,2013-07-06 07:07:00,
2013-07-06 03:22:00,-999.0,-99.9,30.12,North,-999,-999.0,-999.0,-999,0.00,,,0.00,weatherlink.com 1.10,2013-07-06 07:22:00,
2013-07-06 03:37:00,-999.0,-99.9,30.11,North,-999,-999.0,-999.0,-999,0.00,,,0.00,weatherlink.com 1.10,2013-07-06 07:37:00,
2013-07-06 03:52:00,-999.0,-99.9,30.11,North,-999,-999.0,-999.0,-999,0.00,,,0.00,weatherlink.com 1.10,2013-07-06 07:52:00,
2013-07-06 04:08:00,-999.0,-99.9,30.11,North,-999,-999.0,-999.0,-999,0.00,,,0.00,weatherlink.com 1.10,2013-07-06 08:08:00,
2013-07-06 04:23:00,-999.0,-99.9,30.11,North,-999,-999.0,-999.0,-999,0.00,,,0.00,weatherlink.com 1.10,2013-07-06 08:23:00,
2013-07-06 04:38:00,-999.0,-99.9,30.11,North,-999,-999.0,-999.0,-999,0.00,,,0.00,weatherlink.com 1.10,2013-07-06 08:38:00,
2013-07-06 04:53:00,-999.0,-99.9,30.12,North,-999,-999.0,-999.0,-999,0.00,,,0.00,weatherlink.com 1.10,2013-07-06 08:53:00,
2013-07-06 05:08:00,-999.0,-99.9,30.11,North,-999,-999.0,-999.0,-999,0.00,,,0.00,weatherlink.com 1.10,2013-07-06 09:08:00,
2013-07-06 05:23:00,-999.0,-99.9,30.11,North,-999,-999.0,-999.0,-999,0.00,,,0.00,weatherlink.com 1.10,2013-07-06 09:23:00,
2013-07-06 05:38:00,-999.0,-99.9,30.11,North,-999,-999.0,-999.0,-999,0.00,,,0.00,weatherlink.com 1.10,2013-07-06 09:38:00,
2013-07-06 05:53:00,-999.0,-99.9,30.12,North,-999,-999.0,-999.0,-999,0.00,,,0.00,weatherlink.com 1.10,2013-07-06 09:53:00,
2013-07-06 06:08:00,-999.0,-99.9,30.12,North,-999,-999.0,-999.0,-999,0.00,,,0.00,weatherlink.com 1.10,2013-07-06 10:08:00,
2013-07-06 06:23:00,78.4,73.0,30.13,West,264,0.0,7.0,83,0.00,,,0.00,weatherlink.com 1.10,2013-07-06 10:23:00,
2013-07-06 06:38:00,78.7,73.0,30.13,WSW,238,0.0,6.0,82,0.00,,,0.00,weatherlink.com 1.10,2013-07-06 10:38:00,
2013-07-06 06:53:00,79.4,73.0,30.13,SW,214,3.0,6.0,81,0.00,,,0.00,weatherlink.com 1.10,2013-07-06 10:53:00,
2013-07-06 07:08:00,80.1,73.0,30.13,WSW,243,3.0,7.0,80,0.00,,,0.00,weatherlink.com 1.10,2013-07-06 11:08:00,
2013-07-06 07:23:00,80.8,73.0,30.12,SW,222,3.0,7.0,78,0.00,,,0.00,weatherlink.com 1.10,2013-07-06 11:23:00,
2013-07-06 07:38:00,81.2,74.0,30.12,West,268,4.0,8.0,78,0.00,,,0.00,weatherlink.com 1.10,2013-07-06 11:38:00,
2013-07-06 07:53:00,81.5,74.0,30.12,SW,224,2.0,8.0,77,0.00,,,0.00,weatherlink.com 1.10,2013-07-06 11:53:00,
2013-07-06 08:08:00,82.9,74.0,30.12,SW,225,1.0,6.0,75,0.00,,,0.00,weatherlink.com 1.10,2013-07-06 12:08:00,
2013-07-06 08:23:00,83.4,74.0,30.13,SW,233,1.0,7.0,74,0.00,,,0.00,weatherlink.com 1.10,2013-07-06 12:23:00,
2013-07-06 08:38:00,84.6,75.0,30.12,NW,319,1.0,6.0,72,0.00,,,0.00,weatherlink.com 1.10,2013-07-06 12:38:00,
2013-07-06 08:53:00,85.2,74.0,30.12,West,263,2.0,6.0,70,0.00,,,0.00,weatherlink.com 1.10,2013-07-06 12:53:00,
2013-07-06 09:08:00,85.4,75.0,30.12,SSW,213,1.0,5.0,70,0.00,,,0.00,weatherlink.com 1.10,2013-07-06 13:08:00,
2013-07-06 09:23:00,86.4,74.0,30.12,SSW,208,3.0,5.0,67,0.00,,,0.00,weatherlink.com 1.10,2013-07-06 13:23:00,
2013-07-06 09:39:00,87.3,75.0,30.12,WNW,302,3.0,5.0,66,0.00,,,0.00,weatherlink.com 1.10,2013-07-06 13:39:00,
2013-07-06 09:54:00,87.9,75.0,30.11,SW,235,4.0,6.0,65,0.00,,,0.00,weatherlink.com 1.10,2013-07-06 13:54:00,
2013-07-06 10:09:00,89.0,74.0,30.11,West,262,1.0,7.0,61,0.00,,,0.00,weatherlink.com 1.10,2013-07-06 14:09:00,
2013-07-06 10:24:00,89.2,74.0,30.11,West,281,2.0,5.0,61,0.00,,,0.00,weatherlink.com 1.10,2013-07-06 14:24:00,
2013-07-06 10:39:00,90.1,74.0,30.10,NW,321,4.0,6.0,59,0.00,,,0.00,weatherlink.com 1.10,2013-07-06 14:39:00,
2013-07-06 10:54:00,90.3,74.0,30.10,SE,139,2.0,7.0,58,0.00,,,0.00,weatherlink.com 1.10,2013-07-06 14:54:00,
2013-07-06 11:09:00,90.5,73.0,30.10,SW,231,5.0,7.0,57,0.00,,,0.00,weatherlink.com 1.10,2013-07-06 15:09:00,
2013-07-06 11:24:00,91.8,72.0,30.09,WSW,250,3.0,8.0,53,0.00,,,0.00,weatherlink.com 1.10,2013-07-06 15:24:00,
2013-07-06 11:39:00,91.7,72.0,30.09,SSW,198,4.0,10.0,53,0.00,,,0.00,weatherlink.com 1.10,2013-07-06 15:39:00,
2013-07-06 11:54:00,93.2,73.0,30.09,SSW,213,1.0,8.0,52,0.00,,,0.00,weatherlink.com 1.10,2013-07-06 15:54:00,
2013-07-06 12:09:00,93.6,72.0,30.09,WNW,302,3.0,12.0,50,0.00,,,0.00,weatherlink.com 1.10,2013-07-06 16:09:00,
2013-07-06 12:24:00,93.7,72.0,30.09,SW,236,7.0,11.0,49,0.00,,,0.00,weatherlink.com 1.10,2013-07-06 16:24:00,
2013-07-06 12:54:00,94.4,72.0,30.08,NW,311,4.0,8.0,48,0.00,,,0.00,weatherlink.com 1.10,2013-07-06 16:54:00,
2013-07-06 13:09:00,95.2,72.0,30.08,SSW,198,2.0,10.0,47,0.00,,,0.00,weatherlink.com 1.10,2013-07-06 17:09:00,
2013-07-06 13:39:00,95.8,71.0,30.07,NW,321,1.0,6.0,44,0.00,,,0.00,weatherlink.com 1.10,2013-07-06 17:39:00,
2013-07-06 13:54:00,95.9,71.0,30.07,SSW,195,3.0,12.0,44,0.00,,,0.00,weatherlink.com 1.10,2013-07-06 17:54:00,
2013-07-06 14:09:00,96.5,71.0,30.07,NNW,332,2.0,6.0,43,0.00,,,0.00,weatherlink.com 1.10,2013-07-06 18:09:00,
2013-07-06 14:24:00,95.7,71.0,30.06,WNW,302,3.0,7.0,45,0.00,,,0.00,weatherlink.com 1.10,2013-07-06 18:24:00,
2013-07-06 14:39:00,95.6,71.0,30.06,WNW,290,2.0,8.0,45,0.00,,,0.00,weatherlink.com 1.10,2013-07-06 18:39:00,
2013-07-06 14:54:00,96.1,70.0,30.06,WSW,242,3.0,9.0,43,0.00,,,0.00,weatherlink.com 1.10,2013-07-06 18:54:00,
2013-07-06 15:39:00,96.5,70.0,30.05,SSE,167,3.0,10.0,42,0.00,,,0.00,weatherlink.com 1.10,2013-07-06 19:39:00,
2013-07-06 16:25:00,96.4,70.0,30.04,WNW,285,1.0,15.0,42,0.00,,,0.00,weatherlink.com 1.10,2013-07-06 20:25:00,
2013-07-06 16:40:00,95.7,70.0,30.03,SSE,167,2.0,8.0,44,0.00,,,0.00,weatherlink.com 1.10,2013-07-06 20:40:00,
2013-07-06 17:25:00,95.8,70.0,30.02,WSW,250,2.0,10.0,43,0.00,,,0.00,weatherlink.com 1.10,2013-07-06 21:25:00,
2013-07-06 17:40:00,95.4,70.0,30.02,NNW,338,8.0,9.0,43,0.00,,,0.00,weatherlink.com 1.10,2013-07-06 21:40:00,
2013-07-06 17:55:00,95.4,70.0,30.02,WNW,290,2.0,10.0,44,0.00,,,0.00,weatherlink.com 1.10,2013-07-06 21:55:00,
2013-07-06 18:10:00,95.8,71.0,30.02,WNW,297,2.0,7.0,44,0.00,,,0.00,weatherlink.com 1.10,2013-07-06 22:10:00,
2013-07-06 18:25:00,94.9,70.0,30.02,WNW,289,2.0,6.0,45,0.00,,,0.00,weatherlink.com 1.10,2013-07-06 22:25:00,
2013-07-06 18:40:00,93.8,70.0,30.02,SSE,159,1.0,8.0,46,0.00,,,0.00,weatherlink.com 1.10,2013-07-06 22:40:00,
2013-07-06 18:55:00,93.8,70.0,30.01,WNW,297,1.0,8.0,46,0.00,,,0.00,weatherlink.com 1.10,2013-07-06 22:55:00,
2013-07-06 19:10:00,94.3,70.0,30.01,NW,307,4.0,5.0,45,0.00,,,0.00,weatherlink.com 1.10,2013-07-06 23:10:00,
2013-07-06 19:40:00,93.3,70.0,30.01,West,259,1.0,5.0,47,0.00,,,0.00,weatherlink.com 1.10,2013-07-06 23:40:00,
2013-07-06 19:55:00,91.8,69.0,30.01,SE,129,2.0,8.0,48,0.00,,,0.00,weatherlink.com 1.10,2013-07-06 23:55:00,
2013-07-06 20:25:00,90.8,70.0,30.01,NNW,333,0.0,5.0,51,0.00,,,0.00,weatherlink.com 1.10,2013-07-07 00:25:00,
2013-07-06 20:55:00,90.2,70.0,30.02,SW,235,2.0,5.0,52,0.00,,,0.00,weatherlink.com 1.10,2013-07-07 00:55:00,
2013-07-06 21:10:00,90.0,71.0,30.02,WSW,248,1.0,6.0,53,0.00,,,0.00,weatherlink.com 1.10,2013-07-07 01:10:00,
2013-07-06 21:25:00,89.8,70.0,30.02,West,271,3.0,4.0,53,0.00,,,0.00,weatherlink.com 1.10,2013-07-07 01:25:00,
2013-07-06 22:25:00,89.0,71.0,30.04,WNW,293,2.0,6.0,55,0.00,,,0.00,weatherlink.com 1.10,2013-07-07 02:25:00,
2013-07-06 22:40:00,88.5,71.0,30.04,WNW,287,1.0,4.0,57,0.00,,,0.00,weatherlink.com 1.10,2013-07-07 02:40:00,
2013-07-06 23:10:00,87.5,72.0,30.04,West,262,1.0,4.0,61,0.00,,,0.00,weatherlink.com 1.10,2013-07-07 03:10:00,
2013-07-06 23:40:00,86.6,72.0,30.05,SW,221,2.0,7.0,63,0.00,,,0.00,weatherlink.com 1.10,2013-07-07 03:40:00,